Time;durP1;ratioP1;P1;durP2;ratioP2;P2;SDS_P1;SDS_P2;PMS_P1;PMS_P2;Temp;Humidity;BMP_temperature;BMP_pressure;BME280_temperature;BME280_humidity;BME280_pressure;Samples;Min_cycle;Max_cycle;Signal;HPM_P1;HPM_P2
2022/09/06 00:01:24;;;;;;;4.57;2.70;;;21.10;99.90;;;;;;5022616;28;20296;-43
2022/09/06 00:03:50;;;;;;;7.37;2.30;;;21.00;99.90;;;;;;4999607;28;20182;-44
2022/09/06 00:06:18;;;;;;;3.97;2.63;;;20.90;99.90;;;;;;5015622;28;20189;-44
2022/09/06 00:08:45;;;;;;;3.40;2.27;;;20.80;99.90;;;;;;5015227;28;20594;-43
2022/09/06 00:11:11;;;;;;;5.90;2.17;;;20.80;99.90;;;;;;5015016;28;20269;-44
2022/09/06 00:13:37;;;;;;;4.10;2.13;;;20.70;99.90;;;;;;5014481;28;20218;-43
2022/09/06 00:16:05;;;;;;;9.23;2.73;;;20.60;99.90;;;;;;5014967;28;20708;-43
2022/09/06 00:18:31;;;;;;;3.10;2.30;;;20.60;99.90;;;;;;4997202;28;20182;-41
2022/09/06 00:20:56;;;;;;;5.23;1.80;;;20.60;99.90;;;;;;5014554;28;20180;-44
2022/09/06 00:23:22;;;;;;;2.93;1.93;;;20.50;99.90;;;;;;5016546;28;20186;-44
2022/09/06 00:25:48;;;;;;;4.43;2.17;;;20.50;99.90;;;;;;5022032;28;20228;-45
2022/09/06 00:28:15;;;;;;;4.40;1.77;;;20.40;99.90;;;;;;5021518;28;20185;-45
2022/09/06 00:30:40;;;;;;;5.23;2.37;;;20.40;99.90;;;;;;5020254;28;20192;-40
2022/09/06 00:33:07;;;;;;;5.33;1.90;;;20.30;99.90;;;;;;5014431;28;20205;-41
2022/09/06 00:35:33;;;;;;;4.47;1.93;;;20.20;99.90;;;;;;4997303;28;20178;-39
2022/09/06 00:38:00;;;;;;;2.33;2.10;;;20.10;99.90;;;;;;5014292;28;20182;-42
2022/09/06 00:40:28;;;;;;;4.93;2.07;;;20.00;99.90;;;;;;5014458;28;20196;-40
2022/09/06 00:42:57;;;;;;;3.73;2.10;;;19.80;99.90;;;;;;5014160;28;20201;-40
2022/09/06 00:45:26;;;;;;;3.30;2.27;;;19.80;99.90;;;;;;5014279;28;20177;-40
2022/09/06 00:47:51;;;;;;;3.30;1.90;;;19.70;99.90;;;;;;5014996;28;20182;-44
2022/09/06 00:50:18;;;;;;;5.13;2.20;;;19.60;99.90;;;;;;4997502;28;20201;-46
2022/09/06 00:52:47;;;;;;;3.30;1.87;;;19.50;99.90;;;;;;5020331;28;20198;-45
2022/09/06 00:55:13;;;;;;;2.67;2.00;;;19.40;99.90;;;;;;5017253;28;20205;-42
2022/09/06 00:57:39;;;;;;;3.10;1.50;;;19.30;99.90;;;;;;5014512;28;20220;-41
2022/09/06 01:00:08;;;;;;;4.37;1.80;;;19.20;99.90;;;;;;5013777;28;20253;-39
2022/09/06 01:02:34;;;;;;;3.83;1.90;;;19.20;99.90;;;;;;5014002;28;20205;-40
2022/09/06 01:05:01;;;;;;;3.53;1.80;;;19.10;99.90;;;;;;4996725;28;20184;-41
2022/09/06 01:07:45;;;;;;;2.60;1.80;;;19.00;99.90;;;;;;5014188;28;20189;-42
2022/09/06 01:10:28;;;;;;;2.33;1.80;;;19.00;99.90;;;;;;5013735;28;20178;-41
2022/09/06 01:13:11;;;;;;;3.37;1.73;;;18.90;99.90;;;;;;5013528;28;20300;-41
2022/09/06 01:15:42;;;;;;;3.10;1.80;;;18.90;99.90;;;;;;5013696;28;20300;-41
2022/09/06 01:18:18;;;;;;;4.20;1.90;;;18.90;99.90;;;;;;5014140;28;20304;-36
2022/09/06 01:20:52;;;;;;;2.70;2.17;;;18.80;99.90;;;;;;5014027;28;20173;-41
2022/09/06 01:23:20;;;;;;;4.00;1.93;;;18.80;99.90;;;;;;5013837;28;20169;-40
2022/09/06 01:25:55;;;;;;;3.70;2.10;;;18.70;99.90;;;;;;5013504;28;20204;-40
2022/09/06 01:28:39;;;;;;;5.53;2.00;;;18.70;99.90;;;;;;5013462;28;20181;-38
2022/09/06 01:31:14;;;;;;;1.70;1.60;;;18.60;99.90;;;;;;5013666;28;20209;-39
2022/09/06 01:34:03;;;;;;;3.50;2.43;;;18.60;99.90;;;;;;5013339;28;20254;-40
2022/09/06 01:36:43;;;;;;;3.33;1.73;;;18.60;99.90;;;;;;4995846;28;20638;-39
2022/09/06 01:39:33;;;;;;;3.47;1.77;;;18.70;99.90;;;;;;5013635;28;20215;-38
2022/09/06 01:42:07;;;;;;;3.37;1.97;;;18.70;99.90;;;;;;5016783;28;20263;-38
2022/09/06 01:44:34;;;;;;;4.70;2.07;;;18.70;99.90;;;;;;5017522;28;20170;-39
2022/09/06 01:47:47;;;;;;;6.97;2.47;;;18.70;99.90;;;;;;5017196;28;20533;-41
2022/09/06 01:50:33;;;;;;;2.13;1.93;;;18.60;99.90;;;;;;4937654;29;20318;-40
2022/09/06 01:53:26;;;;;;;2.17;1.97;;;18.70;99.90;;;;;;5011899;28;20311;-40
2022/09/06 01:56:03;;;;;;;3.53;2.23;;;18.70;99.90;;;;;;5017377;28;20174;-38
2022/09/06 01:58:37;;;;;;;2.97;2.20;;;18.60;99.90;;;;;;5017413;28;20169;-38
2022/09/06 02:01:20;;;;;;;5.27;1.90;;;18.60;99.90;;;;;;5017073;28;20167;-40
2022/09/06 02:04:12;;;;;;;3.13;2.67;;;18.60;99.90;;;;;;5017386;28;20193;-41
2022/09/06 02:06:46;;;;;;;2.37;2.17;;;18.60;99.90;;;;;;5017237;28;20166;-40
2022/09/06 02:09:20;;;;;;;7.87;2.50;;;18.50;99.90;;;;;;5015603;28;20222;-39
2022/09/06 02:11:58;;;;;;;3.17;2.07;;;18.50;99.90;;;;;;5017190;28;20557;-42
2022/09/06 02:14:35;;;;;;;2.33;2.13;;;18.50;99.90;;;;;;5017082;28;20181;-38
2022/09/06 02:17:03;;;;;;;3.80;2.60;;;18.50;99.90;;;;;;5017300;28;20170;-42
2022/09/06 02:19:36;;;;;;;5.57;2.50;;;18.40;99.90;;;;;;5016712;28;20646;-42
2022/09/06 02:22:07;;;;;;;4.60;2.40;;;18.40;99.90;;;;;;5016740;28;20682;-42
2022/09/06 02:24:36;;;;;;;3.03;2.43;;;18.40;99.90;;;;;;5016644;28;20162;-40
2022/09/06 02:27:02;;;;;;;2.67;2.07;;;18.40;99.90;;;;;;5016697;28;20531;-40
2022/09/06 02:29:28;;;;;;;4.10;2.27;;;18.30;99.90;;;;;;5016418;28;20192;-41
2022/09/06 02:32:00;;;;;;;4.90;2.20;;;18.30;99.90;;;;;;5016322;28;20206;-41
2022/09/06 02:34:26;;;;;;;3.47;2.57;;;18.30;99.90;;;;;;5016596;28;20208;-41
2022/09/06 02:36:53;;;;;;;3.73;2.43;;;18.40;99.90;;;;;;5016539;28;20178;-41
2022/09/06 02:39:18;;;;;;;5.13;2.53;;;18.30;99.90;;;;;;5016251;28;20231;-42
2022/09/06 02:41:46;;;;;;;3.93;2.57;;;18.20;99.90;;;;;;5016102;28;20194;-41
2022/09/06 02:44:12;;;;;;;3.47;2.40;;;18.30;99.90;;;;;;5016189;28;20178;-39
2022/09/06 02:46:38;;;;;;;4.17;2.30;;;18.30;99.90;;;;;;5016160;28;20162;-39
2022/09/06 02:49:03;;;;;;;2.93;2.60;;;18.30;99.90;;;;;;5016083;28;20186;-40
2022/09/06 02:51:29;;;;;;;3.10;2.80;;;18.30;99.90;;;;;;5016263;28;20225;-41
2022/09/06 02:53:55;;;;;;;2.83;2.63;;;18.30;99.90;;;;;;5015914;28;20216;-41
2022/09/06 02:56:21;;;;;;;2.87;2.63;;;18.30;99.90;;;;;;5015971;28;20642;-41
2022/09/06 02:58:48;;;;;;;3.40;2.43;;;18.30;99.90;;;;;;5016213;28;20231;-42
2022/09/06 03:01:14;;;;;;;2.90;2.60;;;18.30;99.90;;;;;;5015796;28;20669;-40
2022/09/06 03:03:39;;;;;;;6.87;2.40;;;18.20;99.90;;;;;;5016020;28;20184;-40
2022/09/06 03:06:05;;;;;;;6.87;2.87;;;18.20;99.90;;;;;;5016267;28;20316;-40
2022/09/06 03:08:33;;;;;;;5.40;2.40;;;18.20;99.90;;;;;;5015985;28;20177;-40
2022/09/06 03:10:59;;;;;;;4.93;2.47;;;18.10;99.90;;;;;;5015812;28;20173;-37
2022/09/06 03:13:25;;;;;;;3.23;2.77;;;18.10;99.90;;;;;;5016064;28;20288;-38
2022/09/06 03:15:57;;;;;;;4.70;2.53;;;18.10;99.90;;;;;;5015654;28;20224;-38
2022/09/06 03:18:27;;;;;;;6.30;2.83;;;18.10;99.90;;;;;;5016284;28;20676;-39
2022/09/06 03:20:53;;;;;;;6.77;2.70;;;18.00;99.90;;;;;;5015822;28;20225;-38
2022/09/06 03:23:20;;;;;;;4.93;2.30;;;18.00;99.90;;;;;;5015668;28;20173;-38
2022/09/06 03:25:46;;;;;;;4.33;2.83;;;18.00;99.90;;;;;;5015697;28;20209;-38
2022/09/06 03:28:12;;;;;;;3.90;2.87;;;18.00;99.90;;;;;;5015570;28;20205;-37
2022/09/06 03:30:39;;;;;;;2.90;2.60;;;17.90;99.90;;;;;;5015329;28;20201;-40
2022/09/06 03:33:04;;;;;;;3.33;2.73;;;17.90;99.90;;;;;;5013932;28;20217;-40
2022/09/06 03:35:30;;;;;;;2.70;2.50;;;17.90;99.90;;;;;;5015530;28;20174;-39
2022/09/06 03:37:56;;;;;;;3.47;3.00;;;17.80;99.90;;;;;;5015437;28;20547;-39
2022/09/06 03:40:22;;;;;;;4.60;2.80;;;17.80;99.90;;;;;;5015443;28;20169;-39
2022/09/06 03:42:48;;;;;;;6.93;2.90;;;17.80;99.90;;;;;;5015321;28;20650;-38
2022/09/06 03:45:14;;;;;;;2.97;2.70;;;17.70;99.90;;;;;;5015090;28;20178;-41
2022/09/06 03:47:39;;;;;;;3.07;2.70;;;17.60;99.90;;;;;;5015500;28;20188;-39
2022/09/06 03:50:06;;;;;;;3.87;3.10;;;17.60;99.90;;;;;;5014994;28;20193;-41
2022/09/06 03:52:32;;;;;;;4.50;2.97;;;17.50;99.90;;;;;;5015107;28;20206;-40
2022/09/06 03:54:57;;;;;;;3.37;2.83;;;17.50;99.90;;;;;;5015139;28;20226;-41
2022/09/06 03:57:23;;;;;;;3.93;2.77;;;17.40;99.90;;;;;;5015273;28;20749;-41
2022/09/06 03:59:49;;;;;;;5.00;2.97;;;17.40;99.90;;;;;;5015044;28;20190;-39
2022/09/06 04:02:14;;;;;;;3.60;2.70;;;17.40;99.90;;;;;;5013929;28;20197;-39
2022/09/06 04:04:40;;;;;;;3.43;2.53;;;17.30;99.90;;;;;;5014911;28;20224;-39
2022/09/06 04:07:05;;;;;;;4.70;2.90;;;17.20;99.90;;;;;;4997053;28;20188;-40
2022/09/06 04:09:31;;;;;;;3.00;2.70;;;17.20;99.90;;;;;;5014639;28;20228;-39
2022/09/06 04:11:57;;;;;;;4.30;3.03;;;17.20;99.90;;;;;;5014373;28;20225;-40
2022/09/06 04:14:22;;;;;;;4.93;2.93;;;17.10;99.90;;;;;;5014610;28;20248;-42
2022/09/06 04:16:48;;;;;;;3.00;2.70;;;17.00;99.90;;;;;;5014348;28;20184;-39
2022/09/06 04:19:14;;;;;;;5.20;2.73;;;17.00;99.90;;;;;;5014540;28;20256;-39
2022/09/06 04:21:40;;;;;;;4.63;2.77;;;17.00;99.90;;;;;;5014312;28;20201;-41
2022/09/06 04:24:05;;;;;;;2.97;2.67;;;16.90;99.90;;;;;;5014355;28;20613;-41
2022/09/06 04:26:31;;;;;;;2.57;2.37;;;16.90;99.90;;;;;;5014267;28;20190;-40
2022/09/06 04:28:57;;;;;;;2.90;2.57;;;16.80;99.90;;;;;;5014438;28;20268;-41
2022/09/06 04:31:23;;;;;;;4.53;2.80;;;16.80;99.90;;;;;;5014454;28;20704;-41
2022/09/06 04:33:48;;;;;;;3.63;2.50;;;16.70;99.90;;;;;;5014176;28;20236;-40
2022/09/06 04:36:14;;;;;;;4.33;2.73;;;16.70;99.90;;;;;;5014106;28;20268;-39
2022/09/06 04:38:41;;;;;;;3.27;2.70;;;16.60;99.90;;;;;;5014438;28;20186;-41
2022/09/06 04:41:08;;;;;;;3.00;2.70;;;16.60;99.90;;;;;;5014359;28;20201;-38
2022/09/06 04:43:34;;;;;;;5.10;2.73;;;16.60;99.90;;;;;;5014025;28;20272;-42
2022/09/06 04:46:27;;;;;;;2.43;2.23;;;16.50;99.90;;;;;;5014330;28;20194;-40
2022/09/06 04:48:54;;;;;;;2.83;2.40;;;16.50;99.90;;;;;;5014454;28;20653;-40
2022/09/06 04:51:20;;;;;;;4.50;3.20;;;16.40;99.90;;;;;;5015424;28;20313;-42
2022/09/06 04:53:46;;;;;;;8.50;3.77;;;16.40;99.90;;;;;;5016731;28;20640;-38
2022/09/06 04:56:21;;;;;;;4.50;3.30;;;16.30;99.90;;;;;;5013771;28;20242;-43
2022/09/06 04:58:48;;;;;;;7.67;3.77;;;16.30;99.90;;;;;;5013970;28;20604;-42
2022/09/06 05:01:14;;;;;;;5.00;3.00;;;16.30;99.90;;;;;;5013636;28;20665;-40
2022/09/06 05:03:40;;;;;;;6.00;3.47;;;16.20;99.90;;;;;;5013640;28;20712;-42
2022/09/06 05:06:18;;;;;;;7.20;3.70;;;16.20;99.90;;;;;;5015618;28;20181;-40
2022/09/06 05:08:43;;;;;;;5.53;3.50;;;16.20;99.90;;;;;;5013575;28;20224;-41
2022/09/06 05:11:09;;;;;;;5.23;3.23;;;16.10;99.90;;;;;;5014316;28;20213;-39
2022/09/06 05:13:36;;;;;;;6.73;3.70;;;16.10;99.90;;;;;;5013657;28;20252;-40
2022/09/06 05:16:04;;;;;;;6.73;3.30;;;16.10;99.90;;;;;;5013814;28;20252;-40
2022/09/06 05:18:30;;;;;;;6.63;3.43;;;16.10;99.90;;;;;;5013545;28;20182;-40
2022/09/06 05:20:56;;;;;;;6.53;3.57;;;16.10;99.90;;;;;;5013333;28;20178;-40
2022/09/06 05:23:22;;;;;;;9.20;3.70;;;16.10;99.90;;;;;;5013411;28;20181;-41
2022/09/06 05:25:48;;;;;;;4.67;3.30;;;16.10;99.90;;;;;;5013533;28;20602;-42
2022/09/06 05:28:15;;;;;;;4.73;3.40;;;16.10;99.90;;;;;;5013666;28;20661;-42
2022/09/06 05:30:41;;;;;;;6.90;3.57;;;16.10;99.90;;;;;;5013421;28;20605;-42
2022/09/06 05:33:10;;;;;;;8.77;3.50;;;16.10;99.90;;;;;;5013198;28;20209;-41
2022/09/06 05:35:36;;;;;;;3.70;3.20;;;16.10;99.90;;;;;;5013371;28;20174;-41
2022/09/06 05:38:02;;;;;;;8.03;3.80;;;16.10;99.90;;;;;;5013321;28;20512;-41
2022/09/06 05:40:27;;;;;;;7.43;3.77;;;16.10;99.90;;;;;;5013453;28;20197;-39
2022/09/06 05:42:53;;;;;;;6.37;3.90;;;16.10;99.90;;;;;;5013509;28;20218;-42
2022/09/06 05:45:18;;;;;;;5.27;4.03;;;16.10;99.90;;;;;;5013824;28;20641;-41
2022/09/06 05:47:44;;;;;;;6.83;4.17;;;16.20;99.90;;;;;;5013819;28;20185;-42
2022/09/06 05:50:10;;;;;;;6.53;3.47;;;16.20;99.90;;;;;;5014126;28;20224;-41
2022/09/06 05:52:35;;;;;;;7.70;4.43;;;16.10;99.90;;;;;;5013342;28;20214;-40
2022/09/06 05:55:02;;;;;;;4.80;3.60;;;16.10;99.90;;;;;;5013163;28;20192;-39
2022/09/06 05:57:27;;;;;;;7.23;3.53;;;16.20;99.90;;;;;;5014134;28;20189;-41
2022/09/06 05:59:53;;;;;;;9.70;3.43;;;16.20;99.90;;;;;;5015901;28;20190;-40
2022/09/06 06:02:19;;;;;;;7.90;3.93;;;16.20;99.90;;;;;;5014902;28;20296;-40
2022/09/06 06:04:46;;;;;;;4.57;4.07;;;16.30;99.90;;;;;;5016784;28;20524;-38
2022/09/06 06:07:11;;;;;;;8.57;4.47;;;16.40;99.90;;;;;;5015501;28;20272;-39
2022/09/06 06:09:37;;;;;;;5.03;4.20;;;16.40;99.90;;;;;;5013016;28;20653;-41
2022/09/06 06:12:03;;;;;;;5.83;4.33;;;16.40;99.90;;;;;;5013036;28;20205;-41
2022/09/06 06:14:28;;;;;;;8.67;4.47;;;16.40;99.90;;;;;;5013550;28;20542;-38
2022/09/06 06:16:54;;;;;;;7.40;4.97;;;16.50;99.90;;;;;;5012972;28;20181;-41
2022/09/06 06:19:19;;;;;;;5.07;4.30;;;16.60;99.90;;;;;;5012991;28;20178;-39
2022/09/06 06:21:45;;;;;;;8.83;4.80;;;16.70;99.90;;;;;;5012945;28;20193;-41
2022/09/06 06:24:10;;;;;;;10.03;5.50;;;16.80;99.90;;;;;;5013550;28;20256;-38
2022/09/06 06:26:36;;;;;;;6.80;4.90;;;16.80;99.90;;;;;;5015196;28;20240;-38
2022/09/06 06:29:04;;;;;;;6.97;5.23;;;16.90;99.90;;;;;;5016457;28;20173;-41
2022/09/06 06:31:31;;;;;;;5.83;4.43;;;17.00;99.90;;;;;;4998593;28;20216;-39
2022/09/06 06:33:57;;;;;;;10.77;4.90;;;17.20;99.90;;;;;;5016667;28;20208;-40
2022/09/06 06:36:25;;;;;;;7.17;4.40;;;17.30;99.90;;;;;;5016469;28;20174;-40
2022/09/06 06:38:53;;;;;;;5.87;4.13;;;17.50;99.90;;;;;;4998678;28;20178;-37
2022/09/06 06:41:22;;;;;;;6.30;3.97;;;17.70;99.90;;;;;;5016009;28;20682;-38
2022/09/06 06:43:53;;;;;;;5.37;3.73;;;17.80;99.90;;;;;;5016374;28;20213;-38
2022/09/06 06:46:21;;;;;;;7.17;3.60;;;18.00;99.90;;;;;;5016436;28;20174;-37
2022/09/06 06:48:46;;;;;;;6.77;3.60;;;18.10;99.90;;;;;;5015978;28;20177;-40
2022/09/06 06:51:15;;;;;;;4.47;3.47;;;18.20;99.90;;;;;;5015987;28;20296;-40
2022/09/06 06:53:42;;;;;;;7.33;4.10;;;18.40;99.90;;;;;;5015769;28;20689;-40
2022/09/06 06:56:21;;;;;;;5.80;3.50;;;18.50;99.90;;;;;;5015796;28;20192;-40
2022/09/06 06:58:48;;;;;;;5.10;3.70;;;18.70;99.90;;;;;;5016668;28;20594;-40
2022/09/06 07:01:19;;;;;;;6.00;2.97;;;18.80;99.90;;;;;;4998308;28;20197;-40
2022/09/06 07:03:45;;;;;;;6.63;3.43;;;19.00;99.90;;;;;;5016054;28;20181;-40
2022/09/06 07:06:12;;;;;;;3.77;2.80;;;19.20;99.90;;;;;;5016137;28;20170;-36
2022/09/06 07:08:38;;;;;;;3.77;3.00;;;19.30;99.90;;;;;;5015959;28;20181;-38
2022/09/06 07:11:09;;;;;;;4.47;2.97;;;19.50;99.90;;;;;;5015815;28;20197;-40
2022/09/06 07:13:35;;;;;;;4.27;2.57;;;19.70;99.90;;;;;;5015760;28;20201;-39
2022/09/06 07:16:14;;;;;;;4.23;2.40;;;19.80;99.90;;;;;;5015766;28;20197;-40
2022/09/06 07:18:40;;;;;;;4.37;2.50;;;19.90;99.90;;;;;;5015528;28;20640;-37
2022/09/06 07:21:14;;;;;;;6.10;2.60;;;20.10;99.90;;;;;;5015429;28;20661;-39
2022/09/06 07:23:40;;;;;;;5.93;2.60;;;20.30;99.90;;;;;;5015692;28;20170;-38
2022/09/06 07:26:06;;;;;;;5.80;2.50;;;20.40;99.90;;;;;;5015323;28;20188;-38
2022/09/06 07:28:32;;;;;;;3.13;2.80;;;20.50;99.90;;;;;;5015581;28;20194;-39
2022/09/06 07:30:57;;;;;;;9.87;2.70;;;20.60;99.90;;;;;;5015377;28;20185;-38
2022/09/06 07:33:24;;;;;;;6.27;2.50;;;20.70;99.90;;;;;;5015211;28;20201;-39
2022/09/06 07:36:01;;;;;;;2.83;2.00;;;20.80;99.90;;;;;;5016179;28;20602;-39
2022/09/06 07:38:28;;;;;;;3.87;2.27;;;21.00;99.90;;;;;;5014149;28;20178;-38
2022/09/06 07:40:55;;;;;;;4.37;1.93;;;21.10;99.90;;;;;;5015057;28;20524;-38
2022/09/06 07:43:21;;;;;;;3.73;2.30;;;21.20;99.90;;;;;;5013773;28;20192;-40
2022/09/06 07:45:48;;;;;;;3.13;2.00;;;21.30;99.90;;;;;;5015107;28;20182;-39
2022/09/06 07:48:13;;;;;;;3.23;2.40;;;21.40;99.90;;;;;;5015396;28;20189;-40
2022/09/06 07:50:39;;;;;;;3.90;2.10;;;21.50;99.90;;;;;;5015084;28;20263;-38
2022/09/06 07:53:06;;;;;;;4.10;1.80;;;21.70;99.90;;;;;;5015209;28;20257;-38
2022/09/06 07:55:31;;;;;;;3.07;2.00;;;21.80;99.90;;;;;;5015115;28;20177;-37
2022/09/06 07:57:57;;;;;;;4.20;1.93;;;22.00;99.90;;;;;;5014794;28;20597;-41
2022/09/06 08:00:23;;;;;;;3.63;1.50;;;22.10;99.90;;;;;;5015691;28;20181;-41
2022/09/06 08:02:48;;;;;;;2.90;1.63;;;22.20;99.90;;;;;;5015230;28;20229;-39
2022/09/06 08:05:14;;;;;;;2.53;1.90;;;22.30;99.90;;;;;;5014749;28;20182;-41
2022/09/06 08:07:40;;;;;;;1.67;1.50;;;22.40;99.90;;;;;;5014837;28;20266;-42
2022/09/06 08:10:06;;;;;;;1.90;1.70;;;22.50;99.90;;;;;;5014810;28;20597;-40
2022/09/06 08:12:32;;;;;;;2.60;1.53;;;22.70;99.90;;;;;;5014452;28;20296;-40
2022/09/06 08:14:57;;;;;;;2.60;1.87;;;22.80;99.90;;;;;;5014762;28;20251;-41
2022/09/06 08:17:23;;;;;;;3.33;1.23;;;22.90;99.90;;;;;;5014576;28;20545;-40
2022/09/06 08:19:48;;;;;;;2.30;1.30;;;23.10;99.90;;;;;;5014694;28;20181;-40
2022/09/06 08:22:14;;;;;;;4.27;1.40;;;23.10;99.90;;;;;;5014568;28;20205;-41
2022/09/06 08:24:40;;;;;;;3.57;1.30;;;23.20;99.90;;;;;;5014568;28;20185;-42
2022/09/06 08:27:09;;;;;;;2.37;1.30;;;23.30;99.90;;;;;;5014853;28;20177;-39
2022/09/06 08:29:35;;;;;;;3.23;1.37;;;23.50;99.90;;;;;;5014603;28;20189;-40
2022/09/06 08:32:01;;;;;;;10.13;1.80;;;23.60;99.90;;;;;;5014064;28;20201;-42
2022/09/06 08:34:26;;;;;;;2.77;1.40;;;23.70;99.90;;;;;;4996581;28;20174;-43
2022/09/06 08:36:52;;;;;;;1.90;1.40;;;23.80;99.90;;;;;;5019288;28;20248;-44
2022/09/06 08:39:18;;;;;;;2.47;1.40;;;23.90;99.90;;;;;;5002699;28;20646;-45
2022/09/06 08:42:16;;;;;;;2.33;1.30;;;23.90;99.90;;;;;;5020130;28;20202;-46
2022/09/06 08:44:51;;;;;;;4.00;1.63;;;24.10;99.90;;;;;;4976695;28;20189;-45
2022/09/06 08:47:18;;;;;;;3.50;2.00;;;24.10;99.90;;;;;;5019515;28;20162;-45
2022/09/06 08:49:53;;;;;;;6.43;1.67;;;24.20;99.90;;;;;;5019164;28;20566;-45
2022/09/06 08:52:47;;;;;;;5.17;1.40;;;24.40;99.90;;;;;;5020030;28;20205;-43
2022/09/06 08:55:31;;;;;;;3.40;1.57;;;24.50;99.90;;;;;;5020625;28;20251;-46
2022/09/06 08:58:06;;;;;;;1.60;1.10;;;24.60;99.90;;;;;;5020332;28;20173;-44
2022/09/06 09:00:34;;;;;;;3.10;1.00;;;24.80;99.90;;;;;;5020456;28;20291;-45
2022/09/06 09:03:35;;;;;;;2.30;1.30;;;24.90;99.90;;;;;;5019768;28;20196;-45
2022/09/06 09:06:04;;;;;;;2.37;1.40;;;25.00;99.90;;;;;;5003188;28;20276;-45
2022/09/06 09:08:40;;;;;;;4.20;1.00;;;25.10;99.90;;;;;;5020744;28;20185;-46
2022/09/06 09:11:17;;;;;;;1.60;0.83;;;25.20;99.90;;;;;;5021059;28;20197;-45
2022/09/06 09:13:46;;;;;;;1.83;1.10;;;25.20;99.90;;;;;;5020769;28;20251;-45
2022/09/06 09:16:13;;;;;;;4.20;1.20;;;25.30;99.90;;;;;;5020078;28;20182;-45
2022/09/06 09:18:46;;;;;;;3.27;0.90;;;25.40;99.90;;;;;;5019741;28;20264;-44
2022/09/06 09:21:15;;;;;;;1.53;1.20;;;25.60;99.90;;;;;;5019447;28;20220;-45
2022/09/06 09:23:41;;;;;;;3.90;1.23;;;25.70;99.90;;;;;;5019215;28;20180;-45
2022/09/06 09:26:13;;;;;;;2.23;1.00;;;25.80;99.90;;;;;;5018757;28;20213;-44
2022/09/06 09:29:05;;;;;;;3.30;1.33;;;26.00;99.90;;;;;;5018166;28;20170;-46
2022/09/06 09:31:48;;;;;;;5.70;1.40;;;26.00;99.90;;;;;;5018792;28;20205;-43
2022/09/06 09:34:29;;;;;;;1.27;1.13;;;26.00;99.90;;;;;;5019709;28;20205;-46
2022/09/06 09:37:21;;;;;;;2.33;1.40;;;26.10;99.90;;;;;;5019485;28;20177;-44
2022/09/06 09:39:49;;;;;;;1.77;1.03;;;26.10;99.90;;;;;;5018410;28;20704;-46
2022/09/06 09:42:31;;;;;;;1.03;0.93;;;26.30;99.90;;;;;;5019246;28;20209;-45
2022/09/06 09:44:58;;;;;;;5.07;1.27;;;26.40;99.90;;;;;;5017694;28;20236;-45
2022/09/06 09:47:27;;;;;;;1.77;0.90;;;26.60;99.90;;;;;;5018902;28;20224;-45
2022/09/06 09:49:53;;;;;;;2.87;1.10;;;26.70;99.90;;;;;;5018705;28;20223;-46
2022/09/06 09:52:30;;;;;;;1.07;1.00;;;26.90;99.90;;;;;;5000911;28;20271;-46
2022/09/06 09:55:00;;;;;;;3.63;0.97;;;26.90;99.90;;;;;;5019734;28;20178;-45
2022/09/06 09:57:41;;;;;;;1.77;1.30;;;27.10;99.90;;;;;;5019048;28;20173;-45
2022/09/06 10:00:11;;;;;;;3.67;1.30;;;27.30;99.90;;;;;;5018415;28;20170;-46
2022/09/06 10:02:42;;;;;;;1.37;1.00;;;27.40;99.90;;;;;;5022391;28;20626;-44
2022/09/06 10:05:14;;;;;;;4.10;1.40;;;27.50;99.90;;;;;;5022477;28;20174;-46
2022/09/06 10:07:46;;;;;;;3.40;1.00;;;27.60;99.90;;;;;;5022617;28;20173;-46
2022/09/06 10:10:14;;;;;;;2.97;1.10;;;27.60;99.90;;;;;;5021994;28;20212;-45
2022/09/06 10:12:41;;;;;;;1.37;1.03;;;27.70;99.90;;;;;;5022502;28;20332;-43
2022/09/06 10:15:11;;;;;;;2.30;1.30;;;27.70;99.90;;;;;;5003383;28;20269;-40
2022/09/06 10:17:50;;;;;;;3.07;1.20;;;27.80;99.90;;;;;;5016729;28;20177;-42
2022/09/06 10:20:17;;;;;;;2.90;1.37;;;27.90;99.90;;;;;;5016843;28;20181;-38
2022/09/06 10:23:05;;;;;;;4.73;1.10;;;28.00;99.90;;;;;;5017535;28;20209;-40
2022/09/06 10:25:50;;;;;;;2.30;1.20;;;27.90;99.90;;;;;;5016779;28;20651;-38
2022/09/06 10:28:28;;;;;;;1.10;0.87;;;27.90;99.90;;;;;;5016728;28;20178;-41
2022/09/06 10:31:28;;;;;;;2.50;1.20;;;28.00;99.90;;;;;;5016378;28;20177;-40
2022/09/06 10:34:24;;;;;;;3.00;1.40;;;28.20;99.90;;;;;;4998744;28;20197;-38
2022/09/06 10:37:14;;;;;;;1.17;0.90;;;28.10;99.90;;;;;;5016623;28;20177;-42
2022/09/06 10:39:56;;;;;;;5.43;1.23;;;28.00;99.90;;;;;;5016421;28;20249;-40
2022/09/06 10:42:45;;;;;;;6.68;1.08;;;28.00;99.90;;;;;;5016302;28;20207;-40
2022/09/06 10:45:10;;;;;;;3.88;1.30;;;28.00;99.90;;;;;;5016370;28;20224;-43
2022/09/06 10:47:48;;;;;;;3.97;1.15;;;28.10;99.90;;;;;;5016121;28;20182;-37
2022/09/06 10:50:15;;;;;;;3.60;1.38;;;28.20;99.90;;;;;;5016059;28;20251;-41
2022/09/06 10:52:43;;;;;;;2.33;1.10;;;28.50;99.90;;;;;;5016019;28;20642;-39
2022/09/06 10:55:15;;;;;;;1.42;1.05;;;28.60;99.90;;;;;;5016010;28;20205;-39
2022/09/06 10:57:47;;;;;;;4.43;1.30;;;28.90;99.90;;;;;;5014758;28;20566;-39
2022/09/06 11:00:15;;;;;;;1.70;1.15;;;29.00;99.90;;;;;;5014803;28;20513;-40
2022/09/06 11:03:03;;;;;;;4.25;1.13;;;29.10;99.90;;;;;;5015913;28;20572;-40
2022/09/06 11:05:36;;;;;;;6.88;1.23;;;29.30;99.90;;;;;;5016050;28;20173;-42
2022/09/06 11:08:09;;;;;;;1.88;1.13;;;29.20;99.90;;;;;;5016403;28;20177;-42
2022/09/06 11:10:44;;;;;;;4.63;1.20;;;29.10;99.90;;;;;;5016349;28;20169;-41
2022/09/06 11:13:16;;;;;;;3.13;1.38;;;29.10;99.90;;;;;;5015558;28;20241;-42
2022/09/06 11:16:12;;;;;;;4.50;1.30;;;29.30;99.90;;;;;;5016075;28;20189;-40
2022/09/06 11:18:59;;;;;;;2.00;1.00;;;29.60;99.90;;;;;;4982720;28;20569;-41
2022/09/06 11:22:07;;;;;;;2.75;1.33;;;29.90;99.90;;;;;;5015233;28;20235;-42
2022/09/06 11:25:10;;;;;;;2.08;1.10;;;29.90;99.90;;;;;;5015478;28;20180;-39
2022/09/06 11:27:39;;;;;;;1.90;1.30;;;29.80;99.90;;;;;;5016050;28;20245;-40
2022/09/06 11:30:06;;;;;;;2.00;1.38;;;29.90;99.90;;;;;;5013991;28;20189;-41
2022/09/06 11:32:48;;;;;;;3.15;1.13;;;29.90;99.90;;;;;;5014919;28;20205;-42
2022/09/06 11:35:30;;;;;;;4.15;1.15;;;29.90;99.90;;;;;;5015361;28;20220;-43
2022/09/06 11:38:00;;;;;;;2.20;1.30;;;30.00;99.90;;;;;;5015312;28;20589;-42
2022/09/06 11:40:34;;;;;;;5.05;1.08;;;30.10;99.90;;;;;;5015111;28;20189;-42
2022/09/06 11:43:00;;;;;;;2.28;1.20;;;30.10;99.90;;;;;;5014975;28;20193;-41
2022/09/06 11:45:40;;;;;;;3.00;1.48;;;30.20;99.90;;;;;;5015402;28;20177;-40
2022/09/06 11:48:32;;;;;;;4.07;1.13;;;30.20;99.90;;;;;;4997265;28;20213;-40
2022/09/06 11:50:58;;;;;;;2.58;1.23;;;30.30;99.90;;;;;;5015269;28;20576;-40
2022/09/06 11:53:30;;;;;;;1.98;1.23;;;30.20;99.90;;;;;;5014830;28;20198;-41
2022/09/06 11:55:59;;;;;;;2.08;1.20;;;30.30;99.90;;;;;;5015100;28;20569;-42
2022/09/06 11:58:30;;;;;;;3.90;1.08;;;30.40;99.90;;;;;;5015455;28;20189;-41
2022/09/06 12:01:15;;;;;;;5.35;1.30;;;30.50;99.90;;;;;;5014875;28;20177;-41
2022/09/06 12:03:47;;;;;;;2.00;1.40;;;30.60;99.90;;;;;;5014604;28;20263;-41
2022/09/06 12:06:14;;;;;;;2.83;1.30;;;30.70;99.90;;;;;;5014887;28;20657;-40
2022/09/06 12:08:41;;;;;;;2.35;1.10;;;30.70;99.90;;;;;;5015110;28;20177;-41
2022/09/06 12:11:27;;;;;;;1.55;1.05;;;30.70;99.90;;;;;;5014877;28;20202;-40
2022/09/06 12:13:58;;;;;;;2.33;1.40;;;30.70;98.80;;;;;;5014754;28;20197;-41
2022/09/06 12:16:56;;;;;;;0.80;0.80;;;30.70;99.90;;;;;;5014856;28;20205;-40
2022/09/06 12:19:46;;;;;;;1.25;0.98;;;30.70;98.50;;;;;;5014600;28;20184;-41
2022/09/06 12:22:31;;;;;;;3.28;1.08;;;30.90;99.50;;;;;;5014377;28;20208;-39
2022/09/06 12:25:16;;;;;;;6.18;1.60;;;30.90;99.20;;;;;;5013753;28;20544;-40
2022/09/06 12:28:05;;;;;;;3.95;1.38;;;31.00;96.90;;;;;;5014465;28;20713;-40
2022/09/06 12:30:38;;;;;;;2.42;1.10;;;31.00;97.70;;;;;;5014447;28;20169;-41
2022/09/06 12:33:12;;;;;;;6.50;1.10;;;31.00;98.10;;;;;;5015025;28;20697;-38
2022/09/06 12:35:38;;;;;;;2.22;1.15;;;31.10;97.70;;;;;;5014505;28;20174;-38
2022/09/06 12:38:12;;;;;;;4.85;1.20;;;31.10;98.20;;;;;;5014047;28;20335;-40
2022/09/06 12:40:44;;;;;;;2.22;0.90;;;31.10;97.50;;;;;;5014339;28;20228;-40
2022/09/06 12:43:13;;;;;;;1.92;0.90;;;31.10;96.90;;;;;;5013982;28;20197;-40
2022/09/06 12:45:47;;;;;;;2.20;1.00;;;31.10;97.50;;;;;;5014488;28;20180;-42
2022/09/06 12:48:39;;;;;;;2.53;1.00;;;31.10;95.70;;;;;;5014293;28;20180;-41
2022/09/06 12:51:14;;;;;;;1.98;0.95;;;31.20;95.70;;;;;;5003684;28;20260;-40
2022/09/06 12:54:12;;;;;;;2.45;0.93;;;31.30;95.60;;;;;;5014123;28;20247;-42
2022/09/06 12:56:37;;;;;;;2.70;1.00;;;31.30;95.40;;;;;;5003270;28;20280;-40
2022/09/06 12:59:31;;;;;;;2.35;1.00;;;31.30;95.80;;;;;;4996299;28;20263;-38
2022/09/06 13:02:09;;;;;;;3.05;1.17;;;31.30;95.80;;;;;;5010883;28;20700;-38
2022/09/06 13:04:48;;;;;;;1.85;0.90;;;31.30;94.50;;;;;;5014036;28;20169;-42
2022/09/06 13:07:17;;;;;;;3.83;1.00;;;31.30;94.30;;;;;;5013702;28;20695;-42